sensor_id;sensor_type;location;lat;lon;timestamp;P1;durP1;ratioP1;P2;durP2;ratioP2
52043;SDS011;38053;53.100;6.078;2023-12-20T00:11:05;25.05;;;4.80;;
52043;SDS011;38053;53.100;6.078;2023-12-20T00:21:04;25.95;;;3.95;;
52043;SDS011;38053;53.100;6.078;2023-12-20T00:23:52;28.77;;;5.05;;
52043;SDS011;38053;53.100;6.078;2023-12-20T00:26:18;45.10;;;7.57;;
52043;SDS011;38053;53.100;6.078;2023-12-20T00:28:47;21.70;;;4.10;;
52043;SDS011;38053;53.100;6.078;2023-12-20T00:34:30;16.83;;;3.42;;
52043;SDS011;38053;53.100;6.078;2023-12-20T00:43:03;24.55;;;3.97;;
52043;SDS011;38053;53.100;6.078;2023-12-20T00:45:31;33.75;;;5.10;;
52043;SDS011;38053;53.100;6.078;2023-12-20T00:48:00;17.30;;;3.88;;
52043;SDS011;38053;53.100;6.078;2023-12-20T00:50:47;22.48;;;3.70;;
52043;SDS011;38053;53.100;6.078;2023-12-20T00:53:41;40.47;;;8.68;;
52043;SDS011;38053;53.100;6.078;2023-12-20T00:56:32;30.95;;;4.35;;
52043;SDS011;38053;53.100;6.078;2023-12-20T00:59:09;30.88;;;5.40;;
52043;SDS011;38053;53.100;6.078;2023-12-20T01:01:54;44.80;;;6.30;;
52043;SDS011;38053;53.100;6.078;2023-12-20T01:08:44;27.80;;;4.95;;
52043;SDS011;38053;53.100;6.078;2023-12-20T01:11:24;23.92;;;5.22;;
52043;SDS011;38053;53.100;6.078;2023-12-20T01:13:50;39.80;;;6.13;;
52043;SDS011;38053;53.100;6.078;2023-12-20T01:16:18;39.53;;;5.63;;
52043;SDS011;38053;53.100;6.078;2023-12-20T01:18:47;35.25;;;5.63;;
52043;SDS011;38053;53.100;6.078;2023-12-20T01:28:43;32.92;;;5.00;;
52043;SDS011;38053;53.100;6.078;2023-12-20T01:31:27;22.02;;;5.43;;
52043;SDS011;38053;53.100;6.078;2023-12-20T01:33:56;22.77;;;4.75;;
52043;SDS011;38053;53.100;6.078;2023-12-20T01:39:13;33.50;;;5.53;;
52043;SDS011;38053;53.100;6.078;2023-12-20T01:41:38;29.02;;;6.03;;
52043;SDS011;38053;53.100;6.078;2023-12-20T01:44:07;22.52;;;4.28;;
52043;SDS011;38053;53.100;6.078;2023-12-20T01:52:31;31.30;;;5.55;;
52043;SDS011;38053;53.100;6.078;2023-12-20T01:54:58;37.65;;;6.15;;
52043;SDS011;38053;53.100;6.078;2023-12-20T02:00:33;28.08;;;5.70;;
52043;SDS011;38053;53.100;6.078;2023-12-20T02:03:56;38.83;;;5.60;;
52043;SDS011;38053;53.100;6.078;2023-12-20T02:06:34;32.20;;;6.00;;
52043;SDS011;38053;53.100;6.078;2023-12-20T02:09:06;43.47;;;8.68;;
52043;SDS011;38053;53.100;6.078;2023-12-20T02:11:52;31.33;;;7.88;;
52043;SDS011;38053;53.100;6.078;2023-12-20T02:14:40;32.15;;;6.20;;
52043;SDS011;38053;53.100;6.078;2023-12-20T02:17:09;36.38;;;6.35;;
52043;SDS011;38053;53.100;6.078;2023-12-20T02:23:17;32.95;;;4.85;;
52043;SDS011;38053;53.100;6.078;2023-12-20T02:25:46;22.92;;;4.93;;
52043;SDS011;38053;53.100;6.078;2023-12-20T02:28:24;34.97;;;6.93;;
52043;SDS011;38053;53.100;6.078;2023-12-20T02:31:26;30.70;;;7.70;;
52043;SDS011;38053;53.100;6.078;2023-12-20T02:37:33;28.15;;;5.68;;
52043;SDS011;38053;53.100;6.078;2023-12-20T02:44:43;33.88;;;8.68;;
52043;SDS011;38053;53.100;6.078;2023-12-20T02:50:13;40.50;;;7.07;;
52043;SDS011;38053;53.100;6.078;2023-12-20T02:53:12;37.95;;;6.55;;
52043;SDS011;38053;53.100;6.078;2023-12-20T02:55:39;31.17;;;7.20;;
52043;SDS011;38053;53.100;6.078;2023-12-20T03:05:41;44.70;;;9.05;;
52043;SDS011;38053;53.100;6.078;2023-12-20T03:08:07;42.75;;;6.75;;
52043;SDS011;38053;53.100;6.078;2023-12-20T03:14:02;34.47;;;7.03;;
52043;SDS011;38053;53.100;6.078;2023-12-20T03:16:45;41.30;;;6.47;;
52043;SDS011;38053;53.100;6.078;2023-12-20T03:19:31;46.88;;;6.68;;
52043;SDS011;38053;53.100;6.078;2023-12-20T03:25:03;26.27;;;5.55;;
52043;SDS011;38053;53.100;6.078;2023-12-20T03:34:51;50.65;;;10.07;;
52043;SDS011;38053;53.100;6.078;2023-12-20T03:38:38;27.30;;;5.95;;
52043;SDS011;38053;53.100;6.078;2023-12-20T03:41:32;32.17;;;6.53;;
52043;SDS011;38053;53.100;6.078;2023-12-20T03:57:36;30.05;;;5.35;;
52043;SDS011;38053;53.100;6.078;2023-12-20T04:00:24;29.88;;;5.68;;
52043;SDS011;38053;53.100;6.078;2023-12-20T04:02:52;32.42;;;6.72;;
52043;SDS011;38053;53.100;6.078;2023-12-20T04:05:38;33.42;;;6.43;;
52043;SDS011;38053;53.100;6.078;2023-12-20T04:09:08;32.75;;;5.93;;
52043;SDS011;38053;53.100;6.078;2023-12-20T04:12:23;36.03;;;8.68;;
52043;SDS011;38053;53.100;6.078;2023-12-20T04:17:52;33.28;;;6.63;;
52043;SDS011;38053;53.100;6.078;2023-12-20T04:20:24;44.05;;;9.45;;
52043;SDS011;38053;53.100;6.078;2023-12-20T04:23:27;38.28;;;5.97;;
52043;SDS011;38053;53.100;6.078;2023-12-20T04:28:56;49.55;;;7.25;;
52043;SDS011;38053;53.100;6.078;2023-12-20T04:31:37;49.75;;;8.30;;
52043;SDS011;38053;53.100;6.078;2023-12-20T04:34:03;38.70;;;6.97;;
52043;SDS011;38053;53.100;6.078;2023-12-20T04:36:31;39.05;;;7.75;;
52043;SDS011;38053;53.100;6.078;2023-12-20T04:39:05;36.63;;;8.93;;
52043;SDS011;38053;53.100;6.078;2023-12-20T04:54:22;23.58;;;6.00;;
52043;SDS011;38053;53.100;6.078;2023-12-20T05:04:42;32.90;;;5.93;;
52043;SDS011;38053;53.100;6.078;2023-12-20T05:07:08;44.17;;;7.13;;
52043;SDS011;38053;53.100;6.078;2023-12-20T05:09:54;30.42;;;4.57;;
52043;SDS011;38053;53.100;6.078;2023-12-20T05:18:15;37.50;;;5.97;;
52043;SDS011;38053;53.100;6.078;2023-12-20T05:20:56;67.63;;;9.38;;
52043;SDS011;38053;53.100;6.078;2023-12-20T05:26:35;48.88;;;9.50;;
52043;SDS011;38053;53.100;6.078;2023-12-20T05:34:58;33.60;;;7.80;;
52043;SDS011;38053;53.100;6.078;2023-12-20T05:40:41;56.28;;;8.75;;
52043;SDS011;38053;53.100;6.078;2023-12-20T05:43:07;37.78;;;7.53;;
52043;SDS011;38053;53.100;6.078;2023-12-20T05:48:38;42.88;;;9.52;;
52043;SDS011;38053;53.100;6.078;2023-12-20T05:51:23;44.85;;;8.52;;
52043;SDS011;38053;53.100;6.078;2023-12-20T06:00:24;30.98;;;6.65;;
52043;SDS011;38053;53.100;6.078;2023-12-20T06:02:50;46.75;;;10.10;;
52043;SDS011;38053;53.100;6.078;2023-12-20T06:05:16;43.75;;;7.05;;
52043;SDS011;38053;53.100;6.078;2023-12-20T06:10:34;21.00;;;5.07;;
52043;SDS011;38053;53.100;6.078;2023-12-20T06:13:09;39.53;;;7.00;;
52043;SDS011;38053;53.100;6.078;2023-12-20T06:15:38;37.67;;;6.88;;
52043;SDS011;38053;53.100;6.078;2023-12-20T06:18:09;37.60;;;7.88;;
52043;SDS011;38053;53.100;6.078;2023-12-20T06:20:35;38.42;;;8.55;;
52043;SDS011;38053;53.100;6.078;2023-12-20T06:23:22;36.15;;;8.07;;
52043;SDS011;38053;53.100;6.078;2023-12-20T06:26:00;38.35;;;6.82;;
52043;SDS011;38053;53.100;6.078;2023-12-20T06:28:49;31.17;;;6.68;;
52043;SDS011;38053;53.100;6.078;2023-12-20T06:31:15;40.40;;;7.50;;
52043;SDS011;38053;53.100;6.078;2023-12-20T06:37:21;33.42;;;6.63;;
52043;SDS011;38053;53.100;6.078;2023-12-20T06:39:46;36.78;;;6.78;;
52043;SDS011;38053;53.100;6.078;2023-12-20T06:42:12;35.42;;;7.43;;
52043;SDS011;38053;53.100;6.078;2023-12-20T06:44:46;34.78;;;6.13;;
52043;SDS011;38053;53.100;6.078;2023-12-20T06:47:12;29.83;;;7.45;;
52043;SDS011;38053;53.100;6.078;2023-12-20T06:50:06;30.25;;;6.07;;
52043;SDS011;38053;53.100;6.078;2023-12-20T06:52:42;23.33;;;5.97;;
52043;SDS011;38053;53.100;6.078;2023-12-20T06:58:28;38.30;;;7.18;;
52043;SDS011;38053;53.100;6.078;2023-12-20T07:00:59;25.95;;;5.15;;
52043;SDS011;38053;53.100;6.078;2023-12-20T07:03:39;24.90;;;5.47;;
52043;SDS011;38053;53.100;6.078;2023-12-20T07:06:08;35.42;;;8.63;;
52043;SDS011;38053;53.100;6.078;2023-12-20T07:08:37;33.55;;;6.32;;
52043;SDS011;38053;53.100;6.078;2023-12-20T07:11:08;48.25;;;9.02;;
52043;SDS011;38053;53.100;6.078;2023-12-20T07:13:42;35.72;;;6.97;;
52043;SDS011;38053;53.100;6.078;2023-12-20T07:16:08;47.47;;;8.48;;
52043;SDS011;38053;53.100;6.078;2023-12-20T07:18:37;40.10;;;6.47;;
52043;SDS011;38053;53.100;6.078;2023-12-20T07:21:10;37.47;;;6.78;;
52043;SDS011;38053;53.100;6.078;2023-12-20T07:26:50;45.00;;;7.30;;
52043;SDS011;38053;53.100;6.078;2023-12-20T07:29:23;42.47;;;8.43;;
52043;SDS011;38053;53.100;6.078;2023-12-20T07:32:00;36.92;;;7.18;;
52043;SDS011;38053;53.100;6.078;2023-12-20T07:34:34;26.42;;;6.18;;
52043;SDS011;38053;53.100;6.078;2023-12-20T07:39:50;43.00;;;8.57;;
52043;SDS011;38053;53.100;6.078;2023-12-20T07:42:22;23.73;;;5.85;;
52043;SDS011;38053;53.100;6.078;2023-12-20T07:45:28;37.35;;;6.53;;
52043;SDS011;38053;53.100;6.078;2023-12-20T07:53:59;30.55;;;5.15;;
52043;SDS011;38053;53.100;6.078;2023-12-20T08:00:05;31.50;;;5.25;;
52043;SDS011;38053;53.100;6.078;2023-12-20T08:02:54;59.80;;;10.75;;
52043;SDS011;38053;53.100;6.078;2023-12-20T08:15:20;25.75;;;4.18;;
52043;SDS011;38053;53.100;6.078;2023-12-20T08:20:49;33.50;;;4.72;;
52043;SDS011;38053;53.100;6.078;2023-12-20T08:23:33;27.58;;;3.80;;
52043;SDS011;38053;53.100;6.078;2023-12-20T08:32:31;37.15;;;6.03;;
52043;SDS011;38053;53.100;6.078;2023-12-20T08:35:13;35.08;;;7.30;;
52043;SDS011;38053;53.100;6.078;2023-12-20T08:37:53;33.40;;;6.88;;
52043;SDS011;38053;53.100;6.078;2023-12-20T08:40:19;32.15;;;5.55;;
52043;SDS011;38053;53.100;6.078;2023-12-20T08:43:03;32.10;;;5.80;;
52043;SDS011;38053;53.100;6.078;2023-12-20T08:49:04;36.10;;;6.20;;
52043;SDS011;38053;53.100;6.078;2023-12-20T08:55:29;55.15;;;10.23;;
52043;SDS011;38053;53.100;6.078;2023-12-20T08:58:15;26.45;;;6.45;;
52043;SDS011;38053;53.100;6.078;2023-12-20T09:04:14;48.38;;;7.38;;
52043;SDS011;38053;53.100;6.078;2023-12-20T09:06:40;37.47;;;6.15;;
52043;SDS011;38053;53.100;6.078;2023-12-20T09:09:12;38.20;;;6.63;;
52043;SDS011;38053;53.100;6.078;2023-12-20T09:11:51;29.50;;;7.03;;
52043;SDS011;38053;53.100;6.078;2023-12-20T09:14:23;7.18;;;1.85;;
52043;SDS011;38053;53.100;6.078;2023-12-20T09:20:19;4.18;;;1.63;;
52043;SDS011;38053;53.100;6.078;2023-12-20T09:23:45;11.00;;;2.15;;
52043;SDS011;38053;53.100;6.078;2023-12-20T09:26:11;9.30;;;1.67;;
52043;SDS011;38053;53.100;6.078;2023-12-20T09:28:49;15.77;;;2.03;;
52043;SDS011;38053;53.100;6.078;2023-12-20T09:31:35;15.95;;;2.30;;
52043;SDS011;38053;53.100;6.078;2023-12-20T09:34:38;16.40;;;2.40;;
52043;SDS011;38053;53.100;6.078;2023-12-20T09:56:02;17.88;;;3.63;;
52043;SDS011;38053;53.100;6.078;2023-12-20T10:01:42;13.05;;;2.10;;
52043;SDS011;38053;53.100;6.078;2023-12-20T10:07:46;14.82;;;3.20;;
52043;SDS011;38053;53.100;6.078;2023-12-20T10:11:12;20.17;;;2.90;;
52043;SDS011;38053;53.100;6.078;2023-12-20T10:13:58;20.77;;;3.00;;
52043;SDS011;38053;53.100;6.078;2023-12-20T10:20:29;24.52;;;2.15;;
52043;SDS011;38053;53.100;6.078;2023-12-20T10:27:04;17.85;;;2.35;;
52043;SDS011;38053;53.100;6.078;2023-12-20T10:30:34;15.38;;;1.75;;
52043;SDS011;38053;53.100;6.078;2023-12-20T10:33:34;14.73;;;4.55;;
52043;SDS011;38053;53.100;6.078;2023-12-20T10:36:03;14.20;;;3.22;;
52043;SDS011;38053;53.100;6.078;2023-12-20T10:38:37;28.95;;;3.67;;
52043;SDS011;38053;53.100;6.078;2023-12-20T10:41:33;54.13;;;7.85;;
52043;SDS011;38053;53.100;6.078;2023-12-20T10:44:09;15.80;;;3.03;;
52043;SDS011;38053;53.100;6.078;2023-12-20T10:46:45;19.38;;;2.75;;
52043;SDS011;38053;53.100;6.078;2023-12-20T10:52:47;15.75;;;2.40;;
52043;SDS011;38053;53.100;6.078;2023-12-20T10:56:07;16.48;;;3.15;;
52043;SDS011;38053;53.100;6.078;2023-12-20T10:58:45;25.70;;;4.32;;
52043;SDS011;38053;53.100;6.078;2023-12-20T11:01:20;17.45;;;4.25;;
52043;SDS011;38053;53.100;6.078;2023-12-20T11:17:39;20.98;;;3.00;;
52043;SDS011;38053;53.100;6.078;2023-12-20T11:20:20;15.15;;;3.95;;
52043;SDS011;38053;53.100;6.078;2023-12-20T11:25:51;12.45;;;3.67;;
52043;SDS011;38053;53.100;6.078;2023-12-20T11:31:40;24.75;;;4.53;;
52043;SDS011;38053;53.100;6.078;2023-12-20T11:37:47;13.55;;;3.67;;
52043;SDS011;38053;53.100;6.078;2023-12-20T11:40:33;13.95;;;2.95;;
52043;SDS011;38053;53.100;6.078;2023-12-20T11:43:15;15.55;;;3.17;;
52043;SDS011;38053;53.100;6.078;2023-12-20T11:48:57;19.42;;;5.18;;
52043;SDS011;38053;53.100;6.078;2023-12-20T12:00:48;16.52;;;3.25;;
52043;SDS011;38053;53.100;6.078;2023-12-20T12:03:15;20.77;;;4.07;;
52043;SDS011;38053;53.100;6.078;2023-12-20T12:05:41;15.07;;;4.28;;
52043;SDS011;38053;53.100;6.078;2023-12-20T12:08:14;29.30;;;3.67;;
52043;SDS011;38053;53.100;6.078;2023-12-20T12:10:52;20.52;;;3.53;;
52043;SDS011;38053;53.100;6.078;2023-12-20T12:13:24;26.70;;;3.83;;
52043;SDS011;38053;53.100;6.078;2023-12-20T12:16:01;19.35;;;4.57;;
52043;SDS011;38053;53.100;6.078;2023-12-20T12:18:27;27.38;;;4.05;;
52043;SDS011;38053;53.100;6.078;2023-12-20T12:25:22;19.80;;;3.63;;
52043;SDS011;38053;53.100;6.078;2023-12-20T12:32:10;23.00;;;5.18;;
52043;SDS011;38053;53.100;6.078;2023-12-20T12:34:54;29.00;;;4.03;;
52043;SDS011;38053;53.100;6.078;2023-12-20T12:37:49;21.88;;;3.92;;
52043;SDS011;38053;53.100;6.078;2023-12-20T12:41:19;18.73;;;4.10;;
52043;SDS011;38053;53.100;6.078;2023-12-20T12:43:54;16.33;;;4.18;;
52043;SDS011;38053;53.100;6.078;2023-12-20T12:52:46;12.55;;;2.10;;
52043;SDS011;38053;53.100;6.078;2023-12-20T12:56:12;17.55;;;3.38;;
52043;SDS011;38053;53.100;6.078;2023-12-20T12:58:39;11.80;;;2.35;;
52043;SDS011;38053;53.100;6.078;2023-12-20T13:01:22;10.07;;;1.90;;
52043;SDS011;38053;53.100;6.078;2023-12-20T13:04:17;17.77;;;3.78;;
52043;SDS011;38053;53.100;6.078;2023-12-20T13:06:53;15.23;;;2.15;;
52043;SDS011;38053;53.100;6.078;2023-12-20T13:09:20;14.48;;;2.40;;
52043;SDS011;38053;53.100;6.078;2023-12-20T13:12:00;19.05;;;2.95;;
52043;SDS011;38053;53.100;6.078;2023-12-20T13:15:29;12.23;;;1.92;;
52043;SDS011;38053;53.100;6.078;2023-12-20T13:22:52;16.50;;;2.67;;
52043;SDS011;38053;53.100;6.078;2023-12-20T13:36:13;10.00;;;2.95;;
52043;SDS011;38053;53.100;6.078;2023-12-20T13:38:53;18.73;;;2.10;;
52043;SDS011;38053;53.100;6.078;2023-12-20T13:52:43;14.70;;;3.25;;
52043;SDS011;38053;53.100;6.078;2023-12-20T13:56:18;19.80;;;2.55;;
52043;SDS011;38053;53.100;6.078;2023-12-20T13:58:57;19.67;;;4.35;;
52043;SDS011;38053;53.100;6.078;2023-12-20T14:04:26;21.45;;;3.17;;
52043;SDS011;38053;53.100;6.078;2023-12-20T14:11:32;12.88;;;3.05;;
52043;SDS011;38053;53.100;6.078;2023-12-20T14:14:16;17.80;;;3.33;;
52043;SDS011;38053;53.100;6.078;2023-12-20T14:21:09;17.45;;;2.90;;
52043;SDS011;38053;53.100;6.078;2023-12-20T14:31:20;20.70;;;2.83;;
52043;SDS011;38053;53.100;6.078;2023-12-20T14:37:27;22.38;;;3.58;;
52043;SDS011;38053;53.100;6.078;2023-12-20T14:40:30;13.85;;;3.00;;
52043;SDS011;38053;53.100;6.078;2023-12-20T14:44:11;16.75;;;2.28;;
52043;SDS011;38053;53.100;6.078;2023-12-20T14:46:55;11.50;;;2.70;;
52043;SDS011;38053;53.100;6.078;2023-12-20T14:57:14;25.63;;;4.70;;
52043;SDS011;38053;53.100;6.078;2023-12-20T14:59:45;18.23;;;2.80;;
52043;SDS011;38053;53.100;6.078;2023-12-20T15:02:14;25.58;;;4.50;;
52043;SDS011;38053;53.100;6.078;2023-12-20T15:04:40;16.77;;;5.00;;
52043;SDS011;38053;53.100;6.078;2023-12-20T15:07:06;26.13;;;4.20;;
52043;SDS011;38053;53.100;6.078;2023-12-20T15:09:32;15.07;;;3.75;;
52043;SDS011;38053;53.100;6.078;2023-12-20T15:11:57;27.77;;;4.63;;
52043;SDS011;38053;53.100;6.078;2023-12-20T15:21:56;28.70;;;5.70;;
52043;SDS011;38053;53.100;6.078;2023-12-20T15:24:25;29.08;;;4.60;;
52043;SDS011;38053;53.100;6.078;2023-12-20T15:27:50;31.98;;;7.13;;
52043;SDS011;38053;53.100;6.078;2023-12-20T15:30:21;42.80;;;5.97;;
52043;SDS011;38053;53.100;6.078;2023-12-20T15:32:58;38.53;;;7.82;;
52043;SDS011;38053;53.100;6.078;2023-12-20T15:40:00;22.30;;;5.05;;
52043;SDS011;38053;53.100;6.078;2023-12-20T15:42:28;31.30;;;4.80;;
52043;SDS011;38053;53.100;6.078;2023-12-20T15:44:56;32.65;;;5.53;;
52043;SDS011;38053;53.100;6.078;2023-12-20T15:47:27;27.95;;;4.93;;
52043;SDS011;38053;53.100;6.078;2023-12-20T15:49:58;20.48;;;4.55;;
52043;SDS011;38053;53.100;6.078;2023-12-20T15:56:27;22.33;;;6.10;;
52043;SDS011;38053;53.100;6.078;2023-12-20T15:59:05;22.77;;;5.72;;
52043;SDS011;38053;53.100;6.078;2023-12-20T16:01:33;27.98;;;5.50;;
52043;SDS011;38053;53.100;6.078;2023-12-20T16:05:03;17.85;;;4.18;;
52043;SDS011;38053;53.100;6.078;2023-12-20T16:11:07;26.17;;;5.13;;
52043;SDS011;38053;53.100;6.078;2023-12-20T16:13:33;35.00;;;6.50;;
52043;SDS011;38053;53.100;6.078;2023-12-20T16:16:02;24.63;;;4.60;;
52043;SDS011;38053;53.100;6.078;2023-12-20T16:18:34;32.80;;;6.63;;
52043;SDS011;38053;53.100;6.078;2023-12-20T16:21:06;32.92;;;6.32;;
52043;SDS011;38053;53.100;6.078;2023-12-20T16:33:46;35.47;;;5.82;;
52043;SDS011;38053;53.100;6.078;2023-12-20T16:36:31;39.58;;;6.32;;
52043;SDS011;38053;53.100;6.078;2023-12-20T16:40:02;60.30;;;10.70;;
52043;SDS011;38053;53.100;6.078;2023-12-20T16:42:59;33.35;;;5.95;;
52043;SDS011;38053;53.100;6.078;2023-12-20T16:45:33;31.52;;;7.20;;
52043;SDS011;38053;53.100;6.078;2023-12-20T16:48:01;31.77;;;6.85;;
52043;SDS011;38053;53.100;6.078;2023-12-20T16:54:38;39.17;;;5.32;;
52043;SDS011;38053;53.100;6.078;2023-12-20T16:57:04;29.95;;;5.25;;
52043;SDS011;38053;53.100;6.078;2023-12-20T17:02:05;27.52;;;6.97;;
52043;SDS011;38053;53.100;6.078;2023-12-20T17:04:34;24.65;;;4.95;;
52043;SDS011;38053;53.100;6.078;2023-12-20T17:10:34;28.17;;;5.57;;
52043;SDS011;38053;53.100;6.078;2023-12-20T17:13:00;36.67;;;5.63;;
52043;SDS011;38053;53.100;6.078;2023-12-20T17:15:28;27.02;;;5.00;;
52043;SDS011;38053;53.100;6.078;2023-12-20T17:17:57;32.53;;;5.47;;
52043;SDS011;38053;53.100;6.078;2023-12-20T17:20:26;34.15;;;6.90;;
52043;SDS011;38053;53.100;6.078;2023-12-20T17:22:52;34.28;;;5.55;;
52043;SDS011;38053;53.100;6.078;2023-12-20T17:25:27;30.17;;;5.70;;
52043;SDS011;38053;53.100;6.078;2023-12-20T17:27:58;18.20;;;4.93;;
52043;SDS011;38053;53.100;6.078;2023-12-20T17:30:27;32.25;;;6.13;;
52043;SDS011;38053;53.100;6.078;2023-12-20T17:33:09;20.20;;;5.40;;
52043;SDS011;38053;53.100;6.078;2023-12-20T17:35:43;27.52;;;6.45;;
52043;SDS011;38053;53.100;6.078;2023-12-20T17:39:15;15.52;;;5.13;;
52043;SDS011;38053;53.100;6.078;2023-12-20T17:41:41;25.80;;;8.40;;
52043;SDS011;38053;53.100;6.078;2023-12-20T17:44:11;11.98;;;5.22;;
52043;SDS011;38053;53.100;6.078;2023-12-20T17:46:37;27.05;;;5.53;;
52043;SDS011;38053;53.100;6.078;2023-12-20T17:49:24;15.20;;;4.50;;
52043;SDS011;38053;53.100;6.078;2023-12-20T17:52:00;15.27;;;3.47;;
52043;SDS011;38053;53.100;6.078;2023-12-20T17:54:34;10.10;;;4.22;;
52043;SDS011;38053;53.100;6.078;2023-12-20T17:56:59;15.90;;;4.60;;
52043;SDS011;38053;53.100;6.078;2023-12-20T17:59:26;19.10;;;5.75;;
52043;SDS011;38053;53.100;6.078;2023-12-20T18:02:01;9.27;;;4.05;;
52043;SDS011;38053;53.100;6.078;2023-12-20T18:04:27;12.98;;;5.25;;
52043;SDS011;38053;53.100;6.078;2023-12-20T18:06:53;15.85;;;4.57;;
52043;SDS011;38053;53.100;6.078;2023-12-20T18:09:18;11.13;;;5.50;;
52043;SDS011;38053;53.100;6.078;2023-12-20T18:11:50;10.77;;;4.38;;
52043;SDS011;38053;53.100;6.078;2023-12-20T18:14:24;6.70;;;3.30;;
52043;SDS011;38053;53.100;6.078;2023-12-20T18:20:31;7.38;;;3.28;;
52043;SDS011;38053;53.100;6.078;2023-12-20T18:22:56;14.07;;;3.72;;
52043;SDS011;38053;53.100;6.078;2023-12-20T18:25:22;14.57;;;3.97;;
52043;SDS011;38053;53.100;6.078;2023-12-20T18:27:48;9.73;;;3.42;;
52043;SDS011;38053;53.100;6.078;2023-12-20T18:30:14;11.73;;;3.92;;
52043;SDS011;38053;53.100;6.078;2023-12-20T18:32:39;13.27;;;4.35;;
52043;SDS011;38053;53.100;6.078;2023-12-20T18:35:07;6.78;;;3.42;;
52043;SDS011;38053;53.100;6.078;2023-12-20T19:25:51;19.67;;;4.65;;
52043;SDS011;38053;53.100;6.078;2023-12-20T19:32:57;13.35;;;4.15;;
52043;SDS011;38053;53.100;6.078;2023-12-20T19:47:41;10.35;;;3.40;;
52043;SDS011;38053;53.100;6.078;2023-12-20T20:46:45;42.33;;;7.45;;
52043;SDS011;38053;53.100;6.078;2023-12-20T21:06:12;30.73;;;5.70;;
52043;SDS011;38053;53.100;6.078;2023-12-20T21:39:53;49.58;;;7.50;;
52043;SDS011;38053;53.100;6.078;2023-12-20T21:43:42;44.15;;;7.18;;
52043;SDS011;38053;53.100;6.078;2023-12-20T22:46:19;31.25;;;7.10;;
52043;SDS011;38053;53.100;6.078;2023-12-20T22:49:06;36.70;;;7.32;;
52043;SDS011;38053;53.100;6.078;2023-12-20T22:51:37;30.67;;;6.85;;
52043;SDS011;38053;53.100;6.078;2023-12-20T22:54:03;33.53;;;7.47;;
52043;SDS011;38053;53.100;6.078;2023-12-20T22:56:33;50.20;;;7.50;;
52043;SDS011;38053;53.100;6.078;2023-12-20T23:02:11;32.10;;;7.05;;
52043;SDS011;38053;53.100;6.078;2023-12-20T23:04:38;42.70;;;8.87;;
52043;SDS011;38053;53.100;6.078;2023-12-20T23:07:05;37.33;;;6.10;;
52043;SDS011;38053;53.100;6.078;2023-12-20T23:09:31;40.33;;;7.55;;
52043;SDS011;38053;53.100;6.078;2023-12-20T23:12:00;39.85;;;7.78;;
52043;SDS011;38053;53.100;6.078;2023-12-20T23:14:26;35.40;;;6.18;;
52043;SDS011;38053;53.100;6.078;2023-12-20T23:16:58;27.85;;;6.95;;
52043;SDS011;38053;53.100;6.078;2023-12-20T23:19:47;37.67;;;7.78;;
52043;SDS011;38053;53.100;6.078;2023-12-20T23:32:22;33.05;;;5.78;;
52043;SDS011;38053;53.100;6.078;2023-12-20T23:34:49;37.20;;;5.82;;
52043;SDS011;38053;53.100;6.078;2023-12-20T23:37:45;40.22;;;7.78;;
52043;SDS011;38053;53.100;6.078;2023-12-20T23:40:50;25.38;;;5.20;;
52043;SDS011;38053;53.100;6.078;2023-12-20T23:50:07;23.73;;;5.78;;
52043;SDS011;38053;53.100;6.078;2023-12-20T23:52:41;42.20;;;7.93;;
52043;SDS011;38053;53.100;6.078;2023-12-20T23:58:33;27.15;;;5.07;;
